createdAt,value
2018-02-22T00:01:23.882Z,27.03
2018-02-22T00:03:50.286Z,26.73
2018-02-22T00:06:16.677Z,27.90
2018-02-22T00:08:43.105Z,27.33
2018-02-22T00:11:09.489Z,31.03
2018-02-22T00:13:35.854Z,30.77
2018-02-22T00:16:02.233Z,29.13
2018-02-22T00:18:28.632Z,35.73
2018-02-22T00:20:54.997Z,28.93
2018-02-22T00:23:21.453Z,31.07
2018-02-22T00:25:47.891Z,28.03
2018-02-22T00:28:14.325Z,25.27
2018-02-22T00:30:40.722Z,27.40
2018-02-22T00:33:07.173Z,26.90
2018-02-22T00:35:33.643Z,22.70
2018-02-22T00:38:00.037Z,27.27
2018-02-22T00:40:26.486Z,24.97
2018-02-22T00:42:52.944Z,25.17
2018-02-22T00:45:19.324Z,25.00
2018-02-22T00:47:45.740Z,27.63
2018-02-22T00:50:12.157Z,26.70
2018-02-22T00:52:38.541Z,26.63
2018-02-22T00:55:04.949Z,26.40
2018-02-22T00:57:31.362Z,29.70
2018-02-22T00:59:57.726Z,29.53
2018-02-22T01:02:24.090Z,27.50
2018-02-22T01:04:50.577Z,28.23
2018-02-22T01:07:17.050Z,30.30
2018-02-22T01:09:43.453Z,30.00
2018-02-22T01:12:09.942Z,30.80
2018-02-22T01:14:36.309Z,27.90
2018-02-22T01:17:02.720Z,28.93
2018-02-22T01:19:29.139Z,30.03
2018-02-22T01:21:55.532Z,26.40
2018-02-22T01:24:21.927Z,30.23
2018-02-22T01:26:48.446Z,28.03
2018-02-22T01:29:14.829Z,25.07
2018-02-22T01:31:41.198Z,21.27
2018-02-22T01:34:07.638Z,23.83
2018-02-22T01:36:34.088Z,22.43
2018-02-22T01:39:00.569Z,20.93
2018-02-22T01:41:26.941Z,20.37
2018-02-22T01:43:53.304Z,20.30
2018-02-22T01:46:19.748Z,18.57
2018-02-22T01:48:46.189Z,19.37
2018-02-22T01:51:12.585Z,19.30
2018-02-22T01:53:38.950Z,16.73
2018-02-22T01:56:05.485Z,17.23
2018-02-22T01:58:31.918Z,19.03
2018-02-22T02:00:58.297Z,17.60
2018-02-22T02:03:24.806Z,20.07
2018-02-22T02:05:51.243Z,21.63
2018-02-22T02:08:17.633Z,16.30
2018-02-22T02:10:44.115Z,17.90
2018-02-22T02:13:10.518Z,19.43
2018-02-22T02:15:36.937Z,22.37
2018-02-22T02:18:03.389Z,20.70
2018-02-22T02:20:29.778Z,23.40
2018-02-22T02:22:56.315Z,22.90
2018-02-22T02:25:22.781Z,23.83
2018-02-22T02:27:55.146Z,22.33
2018-02-22T02:30:21.565Z,23.70
2018-02-22T02:32:48.068Z,25.13
2018-02-22T02:35:14.458Z,24.63
2018-02-22T02:37:40.858Z,19.67
2018-02-22T02:40:07.360Z,23.60
2018-02-22T02:42:33.753Z,25.50
2018-02-22T02:45:00.154Z,23.70
2018-02-22T02:47:26.609Z,26.90
2018-02-22T02:49:53.035Z,22.50
2018-02-22T02:52:19.601Z,20.03
2018-02-22T02:54:46.042Z,24.67
2018-02-22T02:57:12.475Z,21.43
2018-02-22T02:59:38.903Z,23.13
2018-02-22T03:02:05.332Z,21.23
2018-02-22T03:04:31.862Z,19.93
2018-02-22T03:06:58.302Z,19.83
2018-02-22T03:09:24.746Z,20.97
2018-02-22T03:11:51.117Z,18.60
2018-02-22T03:14:17.488Z,21.10
2018-02-22T03:16:43.915Z,20.10
2018-02-22T03:19:10.261Z,23.77
2018-02-22T03:21:36.610Z,21.77
2018-02-22T03:24:03.077Z,21.87
2018-02-22T03:26:29.457Z,18.97
2018-02-22T03:28:55.829Z,19.93
2018-02-22T03:31:22.278Z,22.63
2018-02-22T03:33:48.677Z,15.73
2018-02-22T03:36:15.082Z,17.73
2018-02-22T03:38:41.522Z,18.77
2018-02-22T03:41:07.918Z,20.10
2018-02-22T03:43:34.310Z,20.27
2018-02-22T03:46:00.904Z,24.07
2018-02-22T03:48:27.262Z,20.37
2018-02-22T03:50:53.689Z,17.67
2018-02-22T03:53:20.183Z,17.40
2018-02-22T03:55:46.671Z,18.47
2018-02-22T03:58:13.165Z,18.73
2018-02-22T04:00:39.648Z,18.00
2018-02-22T04:03:06.207Z,21.77
2018-02-22T04:05:32.581Z,20.93
2018-02-22T04:07:59.029Z,21.40
2018-02-22T04:10:25.436Z,22.27
2018-02-22T04:12:51.854Z,22.27
2018-02-22T04:15:18.321Z,21.90
2018-02-22T04:17:44.701Z,25.93
2018-02-22T04:20:11.121Z,23.00
2018-02-22T04:22:37.650Z,23.67
2018-02-22T04:25:03.993Z,19.27
2018-02-22T04:27:30.381Z,18.13
2018-02-22T04:29:56.848Z,17.90
2018-02-22T04:32:23.236Z,19.23
2018-02-22T04:34:49.672Z,19.00
2018-02-22T04:37:16.088Z,16.57
2018-02-22T04:39:42.535Z,14.23
2018-02-22T04:42:08.956Z,14.70
2018-02-22T04:44:35.309Z,16.20
2018-02-22T04:47:01.773Z,18.90
2018-02-22T04:49:28.139Z,21.37
2018-02-22T04:51:54.643Z,19.60
2018-02-22T04:54:21.102Z,20.53
2018-02-22T04:56:47.533Z,20.73
2018-02-22T04:59:13.935Z,20.63
2018-02-22T05:01:40.348Z,21.00
2018-02-22T05:04:06.733Z,22.80
2018-02-22T05:06:33.223Z,19.33
2018-02-22T05:08:59.641Z,24.53
2018-02-22T05:11:26.925Z,26.17
2018-02-22T05:13:53.281Z,29.87
2018-02-22T05:16:19.754Z,25.10
2018-02-22T05:18:46.150Z,27.90
2018-02-22T05:21:12.526Z,23.53
2018-02-22T05:23:38.964Z,27.23
2018-02-22T05:26:05.350Z,25.90
2018-02-22T05:28:31.733Z,28.17
2018-02-22T05:30:58.198Z,27.30
2018-02-22T05:33:24.608Z,27.80
2018-02-22T05:35:50.979Z,29.37
2018-02-22T05:38:17.401Z,27.10
2018-02-22T05:40:43.922Z,24.77
2018-02-22T05:43:10.310Z,26.07
2018-02-22T05:45:37.182Z,25.23
2018-02-22T05:48:03.562Z,25.80
2018-02-22T05:50:34.786Z,34.20
2018-02-22T05:53:01.381Z,31.07
2018-02-22T05:55:27.802Z,30.83
2018-02-22T05:57:54.305Z,29.57
2018-02-22T06:00:20.798Z,26.03
2018-02-22T06:02:47.192Z,31.17
2018-02-22T06:05:13.601Z,31.20
2018-02-22T06:07:40.082Z,35.77
2018-02-22T06:10:06.447Z,34.70
2018-02-22T06:12:32.939Z,37.33
2018-02-22T06:14:59.368Z,35.00
2018-02-22T06:17:25.724Z,25.87
2018-02-22T06:19:52.122Z,21.40
2018-02-22T06:22:18.541Z,28.00
2018-02-22T06:24:45.001Z,27.60
2018-02-22T06:27:11.356Z,32.40
2018-02-22T06:29:40.725Z,30.10
2018-02-22T06:32:07.156Z,30.50
2018-02-22T06:34:33.517Z,29.00
2018-02-22T06:36:59.941Z,31.20
2018-02-22T06:39:27.296Z,28.87
2018-02-22T06:41:56.409Z,33.10
2018-02-22T06:44:23.855Z,35.53
2018-02-22T06:46:50.385Z,28.43
2018-02-22T06:49:16.793Z,35.63
2018-02-22T06:51:43.201Z,34.33
2018-02-22T06:54:09.561Z,41.90
2018-02-22T06:56:35.944Z,35.60
2018-02-22T06:59:02.510Z,36.67
2018-02-22T07:01:28.945Z,28.50
2018-02-22T07:03:55.409Z,21.60
2018-02-22T07:06:21.869Z,26.70
2018-02-22T07:08:48.241Z,36.70
2018-02-22T07:11:14.605Z,37.83
2018-02-22T07:13:41.066Z,36.80
2018-02-22T07:16:07.518Z,28.97
2018-02-22T07:18:33.921Z,29.83
2018-02-22T07:21:00.347Z,31.47
2018-02-22T07:23:26.863Z,34.93
2018-02-22T07:25:53.229Z,30.27
2018-02-22T07:28:19.665Z,28.43
2018-02-22T07:30:46.200Z,28.40
2018-02-22T07:33:15.988Z,24.37
2018-02-22T07:35:42.387Z,28.70
2018-02-22T07:38:08.778Z,21.13
2018-02-22T07:40:35.142Z,20.30
2018-02-22T07:43:01.603Z,26.37
2018-02-22T07:45:28.083Z,25.73
2018-02-22T07:47:54.433Z,31.87
2018-02-22T07:50:20.846Z,38.20
2018-02-22T07:52:47.324Z,36.70
2018-02-22T07:55:13.720Z,34.97
2018-02-22T07:57:40.129Z,54.27
2018-02-22T08:00:06.649Z,41.97
2018-02-22T08:02:33.075Z,65.80
2018-02-22T08:05:00.381Z,70.43
2018-02-22T08:07:26.863Z,58.30
2018-02-22T08:09:53.326Z,51.30
2018-02-22T08:12:19.793Z,40.83
2018-02-22T08:14:46.238Z,33.73
2018-02-22T08:17:12.655Z,32.50
2018-02-22T08:19:39.128Z,45.23
2018-02-22T08:22:05.573Z,35.67
2018-02-22T08:24:31.979Z,55.87
2018-02-22T08:26:58.470Z,48.87
2018-02-22T08:29:24.986Z,51.83
2018-02-22T08:31:51.394Z,61.53
2018-02-22T08:34:17.890Z,55.53
2018-02-22T08:36:44.970Z,42.23
2018-02-22T08:39:11.396Z,39.57
2018-02-22T08:41:37.777Z,56.67
2018-02-22T08:44:04.241Z,43.47
2018-02-22T08:46:30.647Z,44.13
2018-02-22T08:48:57.128Z,41.23
2018-02-22T08:51:28.958Z,24.00
2018-02-22T08:54:11.315Z,27.73
2018-02-22T08:56:49.886Z,31.50
2018-02-22T08:59:20.257Z,23.93
2018-02-22T09:01:57.211Z,19.50
2018-02-22T09:04:29.378Z,21.97
2018-02-22T09:06:56.023Z,22.27
2018-02-22T09:09:22.394Z,20.30
2018-02-22T09:11:48.741Z,20.70
2018-02-22T09:14:15.266Z,16.23
2018-02-22T09:16:41.826Z,19.27
2018-02-22T09:19:08.209Z,20.03
2018-02-22T09:21:34.638Z,13.17
2018-02-22T09:24:01.096Z,22.63
2018-02-22T09:26:27.540Z,20.50
2018-02-22T09:28:53.974Z,19.60
2018-02-22T09:31:20.453Z,21.97
2018-02-22T09:33:46.844Z,30.20
2018-02-22T09:36:13.259Z,30.27
2018-02-22T09:38:39.782Z,28.13
2018-02-22T09:41:06.162Z,30.20
2018-02-22T09:43:32.581Z,32.23
2018-02-22T09:45:59.035Z,37.97
2018-02-22T09:48:25.609Z,35.97
2018-02-22T09:50:59.092Z,36.17
2018-02-22T09:53:25.477Z,36.00
2018-02-22T09:55:51.890Z,41.50
2018-02-22T09:58:18.329Z,20.37
2018-02-22T10:00:44.743Z,12.30
2018-02-22T10:03:11.114Z,15.13
2018-02-22T10:05:37.599Z,17.67
2018-02-22T10:08:04.090Z,16.80
2018-02-22T10:10:30.541Z,15.70
2018-02-22T10:12:57.092Z,16.17
2018-02-22T10:15:23.594Z,25.33
2018-02-22T10:17:50.022Z,29.17
2018-02-22T10:20:16.637Z,15.37
2018-02-22T10:22:43.054Z,17.63
2018-02-22T10:25:09.514Z,17.47
2018-02-22T10:27:36.102Z,15.07
2018-02-22T10:30:02.621Z,14.93
2018-02-22T10:32:29.025Z,20.73
2018-02-22T10:34:55.448Z,30.77
2018-02-22T10:37:21.964Z,30.50
2018-02-22T10:39:48.537Z,33.97
2018-02-22T10:42:14.961Z,34.00
2018-02-22T10:44:41.652Z,30.87
2018-02-22T10:47:08.420Z,29.60
2018-02-22T10:49:34.774Z,26.90
2018-02-22T10:52:01.152Z,19.73
2018-02-22T10:54:27.582Z,17.73
2018-02-22T10:56:53.974Z,17.47
2018-02-22T10:59:20.410Z,16.43
2018-02-22T11:01:52.878Z,26.50
2018-02-22T11:04:19.322Z,24.97
2018-02-22T11:06:45.742Z,11.23
2018-02-22T11:09:12.135Z,11.93
2018-02-22T11:11:38.579Z,22.07
2018-02-22T11:14:05.057Z,18.80
2018-02-22T11:16:31.474Z,19.93
2018-02-22T11:18:58.049Z,19.03
2018-02-22T11:21:24.495Z,22.60
2018-02-22T11:23:50.843Z,20.20
2018-02-22T11:26:17.322Z,22.03
2018-02-22T11:28:43.790Z,28.67
2018-02-22T11:31:10.193Z,24.77
2018-02-22T11:33:36.594Z,30.20
2018-02-22T11:36:03.070Z,28.43
2018-02-22T11:38:29.514Z,30.40
2018-02-22T11:40:55.876Z,27.33
2018-02-22T11:43:22.302Z,31.57
2018-02-22T11:45:48.702Z,21.67
2018-02-22T11:48:15.078Z,26.03
2018-02-22T11:50:41.618Z,27.13
2018-02-22T11:53:08.228Z,23.20
2018-02-22T11:55:34.638Z,20.33
2018-02-22T11:58:01.097Z,20.37
2018-02-22T12:00:27.597Z,22.57
2018-02-22T12:02:54.239Z,22.40
2018-02-22T12:05:20.763Z,16.73
2018-02-22T12:07:47.186Z,13.93
2018-02-22T12:10:13.618Z,20.27
2018-02-22T12:12:40.205Z,12.17
2018-02-22T12:15:06.726Z,13.27
2018-02-22T12:17:33.181Z,13.13
2018-02-22T12:19:59.574Z,8.53
2018-02-22T12:22:26.308Z,9.23
2018-02-22T12:24:52.645Z,11.37
2018-02-22T12:27:19.018Z,25.80
2018-02-22T12:29:45.421Z,22.93
2018-02-22T12:32:11.906Z,20.47
2018-02-22T12:34:38.373Z,24.63
2018-02-22T12:37:04.877Z,28.20
2018-02-22T12:39:31.281Z,24.47
2018-02-22T12:41:57.731Z,28.13
2018-02-22T12:44:24.209Z,36.00
2018-02-22T12:46:50.577Z,20.53
2018-02-22T12:49:17.009Z,28.23
2018-02-22T12:51:43.449Z,33.10
2018-02-22T12:54:09.862Z,24.60
2018-02-22T12:56:36.364Z,21.53
2018-02-22T12:59:02.842Z,23.80
2018-02-22T13:01:29.285Z,15.43
2018-02-22T13:03:55.713Z,22.23
2018-02-22T13:06:22.214Z,22.57
2018-02-22T13:08:48.586Z,27.10
2018-02-22T13:11:14.992Z,29.57
2018-02-22T13:13:41.449Z,23.80
2018-02-22T13:16:09.076Z,23.13
2018-02-22T13:18:35.475Z,20.43
2018-02-22T13:21:01.947Z,20.93
2018-02-22T13:23:45.405Z,22.33
2018-02-22T13:26:19.113Z,22.57
2018-02-22T13:28:45.606Z,15.63
2018-02-22T13:31:12.042Z,20.07
2018-02-22T13:33:50.849Z,15.17
2018-02-22T13:36:17.185Z,16.73
2018-02-22T13:38:57.084Z,14.03
2018-02-22T13:41:23.478Z,14.23
2018-02-22T13:44:02.059Z,20.80
2018-02-22T13:46:28.497Z,19.77
2018-02-22T13:49:07.225Z,16.10
2018-02-22T13:51:33.578Z,20.57
2018-02-22T13:54:00.023Z,22.33
2018-02-22T13:56:38.621Z,19.97
2018-02-22T13:59:04.982Z,29.23
2018-02-22T14:01:43.733Z,28.77
2018-02-22T14:04:10.106Z,31.37
2018-02-22T14:06:36.646Z,39.93
2018-02-22T14:09:03.308Z,17.30
2018-02-22T14:11:31.855Z,28.40
2018-02-22T14:13:58.921Z,32.97
2018-02-22T14:16:25.437Z,36.80
2018-02-22T14:18:51.833Z,39.93
2018-02-22T14:21:18.233Z,34.77
2018-02-22T14:23:44.737Z,38.00
2018-02-22T14:26:11.134Z,36.53
2018-02-22T14:28:37.688Z,39.60
2018-02-22T14:31:04.158Z,41.30
2018-02-22T14:33:30.491Z,43.00
2018-02-22T14:35:56.925Z,39.37
2018-02-22T14:38:23.422Z,39.53
2018-02-22T14:40:49.850Z,25.47
2018-02-22T14:43:16.282Z,33.93
2018-02-22T14:45:42.710Z,34.63
2018-02-22T14:48:09.208Z,29.77
2018-02-22T14:50:35.789Z,23.93
2018-02-22T14:53:02.202Z,30.77
2018-02-22T14:55:28.638Z,19.90
2018-02-22T14:57:55.102Z,18.47
2018-02-22T15:00:21.554Z,25.37
2018-02-22T15:02:48.077Z,23.37
2018-02-22T15:05:14.494Z,19.63
2018-02-22T15:07:41.049Z,20.13
2018-02-22T15:10:07.480Z,14.80
2018-02-22T15:12:33.982Z,13.13
2018-02-22T15:15:00.453Z,17.43
2018-02-22T15:17:26.877Z,18.23
2018-02-22T15:19:53.332Z,17.00
2018-02-22T15:22:20.378Z,25.27
2018-02-22T15:24:46.834Z,23.07
2018-02-22T15:27:13.350Z,20.37
2018-02-22T15:29:39.891Z,21.57
2018-02-22T15:32:06.310Z,31.73
2018-02-22T15:34:32.872Z,31.40
2018-02-22T15:36:59.294Z,24.73
2018-02-22T15:39:25.715Z,26.60
2018-02-22T15:41:52.309Z,27.47
2018-02-22T15:44:18.734Z,25.93
2018-02-22T15:46:45.272Z,25.57
2018-02-22T15:49:11.825Z,27.27
2018-02-22T15:51:38.341Z,31.00
2018-02-22T15:54:04.856Z,26.07
2018-02-22T15:56:31.335Z,26.87
2018-02-22T15:58:57.717Z,27.83
2018-02-22T16:01:24.121Z,26.47
2018-02-22T16:03:50.588Z,32.03
2018-02-22T16:06:17.007Z,28.90
2018-02-22T16:08:43.437Z,29.07
2018-02-22T16:11:09.933Z,49.97
2018-02-22T16:13:36.346Z,34.30
2018-02-22T16:16:02.761Z,26.63
2018-02-22T16:18:29.170Z,22.77
2018-02-22T16:20:55.692Z,27.93
2018-02-22T16:23:22.130Z,19.03
2018-02-22T16:25:48.778Z,25.57
2018-02-22T16:28:15.274Z,26.17
2018-02-22T16:30:41.742Z,30.47
2018-02-22T16:33:08.227Z,31.00
2018-02-22T16:35:34.686Z,37.83
2018-02-22T16:38:01.098Z,39.20
2018-02-22T16:40:27.655Z,28.00
2018-02-22T16:42:54.009Z,25.07
2018-02-22T16:45:20.409Z,21.90
2018-02-22T16:47:46.945Z,30.13
2018-02-22T16:50:13.469Z,25.80
2018-02-22T16:52:41.521Z,31.43
2018-02-22T16:55:08.076Z,34.63
2018-02-22T16:57:34.497Z,51.67
2018-02-22T17:00:00.935Z,46.17
2018-02-22T17:02:27.426Z,42.27
2018-02-22T17:04:54.044Z,35.30
2018-02-22T17:07:20.525Z,33.60
2018-02-22T17:09:46.945Z,36.10
2018-02-22T17:12:13.537Z,36.30
2018-02-22T17:14:39.917Z,32.93
2018-02-22T17:17:06.378Z,34.27
2018-02-22T17:19:32.805Z,37.50
2018-02-22T17:21:59.286Z,28.33
2018-02-22T17:24:25.755Z,26.20
2018-02-22T17:26:58.183Z,27.00
2018-02-22T17:29:30.864Z,28.60
2018-02-22T17:32:03.253Z,31.20
2018-02-22T17:34:29.741Z,24.40
2018-02-22T17:36:56.228Z,18.13
2018-02-22T17:39:26.450Z,30.47
2018-02-22T17:41:53.122Z,38.47
2018-02-22T17:44:19.573Z,23.63
2018-02-22T17:46:46.022Z,22.47
2018-02-22T17:49:12.481Z,27.20
2018-02-22T17:51:38.918Z,18.43
2018-02-22T17:54:05.382Z,12.90
2018-02-22T17:56:31.881Z,18.10
2018-02-22T17:58:58.376Z,16.60
2018-02-22T18:01:24.802Z,20.63
2018-02-22T18:03:51.269Z,22.27
2018-02-22T18:06:17.802Z,24.20
2018-02-22T18:08:44.205Z,24.60
2018-02-22T18:11:10.681Z,26.20
2018-02-22T18:13:37.185Z,26.23
2018-02-22T18:16:03.612Z,21.53
2018-02-22T18:18:30.094Z,17.23
2018-02-22T18:20:56.529Z,21.23
2018-02-22T18:23:22.925Z,29.33
2018-02-22T18:25:49.441Z,32.03
2018-02-22T18:28:15.958Z,29.87
2018-02-22T18:30:42.378Z,30.63
2018-02-22T18:33:08.845Z,33.00
2018-02-22T18:35:35.258Z,31.53
2018-02-22T18:38:01.870Z,33.00
2018-02-22T18:40:34.327Z,28.80
2018-02-22T18:43:00.830Z,29.50
2018-02-22T18:45:27.293Z,22.90
2018-02-22T18:47:53.658Z,28.37
2018-02-22T18:50:20.102Z,27.97
2018-02-22T18:52:46.533Z,28.63
2018-02-22T18:55:12.893Z,29.83
2018-02-22T18:57:39.302Z,36.43
2018-02-22T19:00:05.846Z,41.43
2018-02-22T19:02:32.253Z,44.60
2018-02-22T19:04:58.732Z,32.53
2018-02-22T19:07:25.180Z,25.47
2018-02-22T19:09:51.523Z,23.37
2018-02-22T19:12:18.047Z,22.17
2018-02-22T19:14:44.509Z,18.00
2018-02-22T19:17:10.918Z,18.87
2018-02-22T19:19:37.277Z,22.87
2018-02-22T19:22:03.760Z,18.47
2018-02-22T19:24:30.126Z,17.47
2018-02-22T19:26:56.625Z,17.97
2018-02-22T19:29:23.062Z,21.03
2018-02-22T19:31:49.443Z,16.67
2018-02-22T19:34:15.982Z,24.90
2018-02-22T19:36:42.357Z,25.57
2018-02-22T19:39:08.801Z,28.37
2018-02-22T19:41:35.210Z,22.37
2018-02-22T19:44:01.638Z,23.13
2018-02-22T19:46:28.012Z,20.27
2018-02-22T19:48:54.454Z,21.50
2018-02-22T19:51:20.869Z,24.10
2018-02-22T19:53:47.431Z,26.63
2018-02-22T19:56:13.873Z,22.40
2018-02-22T19:58:40.322Z,29.37
2018-02-22T20:01:06.787Z,31.50
2018-02-22T20:03:33.194Z,28.77
2018-02-22T20:05:59.580Z,30.57
2018-02-22T20:08:25.998Z,30.03
2018-02-22T20:10:52.525Z,22.97
2018-02-22T20:13:19.062Z,22.57
2018-02-22T20:15:45.577Z,24.30
2018-02-22T20:18:11.926Z,25.83
2018-02-22T20:20:38.471Z,28.03
2018-02-22T20:23:04.902Z,28.53
2018-02-22T20:25:31.314Z,26.47
2018-02-22T20:27:57.718Z,21.87
2018-02-22T20:30:24.186Z,20.97
2018-02-22T20:32:50.606Z,26.40
2018-02-22T20:35:17.022Z,27.37
2018-02-22T20:37:43.530Z,22.60
2018-02-22T20:40:09.877Z,22.60
2018-02-22T20:42:36.338Z,26.63
2018-02-22T20:45:02.853Z,27.73
2018-02-22T20:47:29.329Z,29.77
2018-02-22T20:49:55.824Z,27.83
2018-02-22T20:52:28.077Z,27.17
2018-02-22T20:54:56.413Z,25.73
2018-02-22T20:57:23.130Z,27.03
2018-02-22T20:59:49.634Z,19.47
2018-02-22T21:02:16.122Z,22.43
2018-02-22T21:04:42.558Z,25.00
2018-02-22T21:07:08.964Z,20.00
2018-02-22T21:09:35.365Z,23.47
2018-02-22T21:12:01.741Z,21.40
2018-02-22T21:14:28.186Z,25.77
2018-02-22T21:16:54.626Z,27.10
2018-02-22T21:19:21.018Z,30.27
2018-02-22T21:21:47.425Z,31.53
2018-02-22T21:24:13.838Z,31.17
2018-02-22T21:26:40.231Z,40.33
2018-02-22T21:29:06.668Z,39.00
2018-02-22T21:31:33.069Z,40.57
2018-02-22T21:33:59.510Z,36.20
2018-02-22T21:36:26.869Z,32.43
2018-02-22T21:38:53.256Z,30.33
2018-02-22T21:41:19.773Z,29.50
2018-02-22T21:43:46.173Z,29.97
2018-02-22T21:46:12.617Z,27.37
2018-02-22T21:48:39.015Z,34.50
2018-02-22T21:51:05.405Z,33.93
2018-02-22T21:53:31.801Z,35.90
2018-02-22T21:55:58.254Z,38.60
2018-02-22T21:58:24.654Z,39.20
2018-02-22T22:00:51.090Z,34.30
2018-02-22T22:03:17.502Z,35.80
2018-02-22T22:05:43.933Z,34.00
2018-02-22T22:08:10.393Z,36.90
2018-02-22T22:10:36.813Z,38.27
2018-02-22T22:13:03.221Z,34.83
2018-02-22T22:15:29.630Z,39.13
2018-02-22T22:17:55.998Z,38.27
2018-02-22T22:20:22.350Z,38.00
2018-02-22T22:22:48.744Z,39.13
2018-02-22T22:25:15.215Z,40.43
2018-02-22T22:27:41.595Z,39.67
2018-02-22T22:30:07.984Z,44.30
2018-02-22T22:32:34.503Z,36.70
2018-02-22T22:35:00.925Z,42.90
2018-02-22T22:37:27.303Z,31.17
2018-02-22T22:39:53.762Z,34.20
2018-02-22T22:42:20.159Z,37.17
2018-02-22T22:44:46.543Z,35.77
2018-02-22T22:47:12.898Z,33.20
2018-02-22T22:49:39.353Z,38.10
2018-02-22T22:52:05.790Z,42.73
2018-02-22T22:54:32.238Z,42.93
2018-02-22T22:56:58.713Z,70.97
2018-02-22T22:59:25.072Z,58.57
2018-02-22T23:01:51.434Z,50.30
2018-02-22T23:04:17.865Z,45.13
2018-02-22T23:06:44.287Z,47.00
2018-02-22T23:09:10.833Z,49.73
2018-02-22T23:11:37.356Z,66.83
2018-02-22T23:14:03.933Z,48.17
2018-02-22T23:16:30.310Z,56.97
2018-02-22T23:18:56.671Z,53.33
2018-02-22T23:21:23.150Z,61.20
2018-02-22T23:23:49.559Z,64.07
2018-02-22T23:26:16.002Z,65.53
2018-02-22T23:28:42.476Z,76.17
2018-02-22T23:31:08.895Z,82.80
2018-02-22T23:33:35.325Z,77.07
2018-02-22T23:36:01.734Z,84.50
2018-02-22T23:38:28.201Z,89.27
2018-02-22T23:54:13.301Z,47.53
2018-02-22T23:56:39.798Z,54.13
2018-02-22T23:59:06.297Z,55.03
